createdAt,value
2023-04-09T00:01:06.454Z,96082.69
2023-04-09T00:03:34.739Z,96080.84
2023-04-09T00:06:02.817Z,96077.56
2023-04-09T00:08:32.210Z,96071.81
2023-04-09T00:11:00.523Z,96076.56
2023-04-09T00:13:37.939Z,96064.81
2023-04-09T00:16:07.542Z,96078.59
2023-04-09T00:18:35.353Z,96071.97
2023-04-09T00:21:03.079Z,96071.72
2023-04-09T00:23:32.120Z,96074.19
2023-04-09T00:25:59.806Z,96071.25
2023-04-09T00:28:27.627Z,96061.56
2023-04-09T00:30:55.404Z,96061.28
2023-04-09T00:33:23.113Z,96061.28
2023-04-09T00:35:50.834Z,96066.88
2023-04-09T00:38:18.586Z,96068.72
2023-04-09T00:40:50.515Z,96059.88
2023-04-09T00:43:28.065Z,96057.78
2023-04-09T00:45:55.949Z,96059.63
2023-04-09T00:48:24.007Z,96063.56
2023-04-09T00:50:51.794Z,96053.69
2023-04-09T00:53:19.701Z,96063.97
2023-04-09T00:55:48.785Z,96056.72
2023-04-09T00:58:17.157Z,96062.00
2023-04-09T01:00:44.920Z,96061.03
2023-04-09T01:03:12.954Z,96064.69
2023-04-09T01:05:49.112Z,96057.25
2023-04-09T01:08:24.872Z,96061.41
2023-04-09T01:11:00.294Z,96062.44
2023-04-09T01:13:35.326Z,96060.81
2023-04-09T01:16:04.991Z,96063.72
2023-04-09T01:18:40.843Z,96058.81
2023-04-09T01:21:17.430Z,96060.47
2023-04-09T01:23:54.127Z,96060.00
2023-04-09T01:26:39.176Z,96056.88
2023-04-09T01:29:08.498Z,96060.16
2023-04-09T01:31:39.263Z,96058.28
2023-04-09T01:34:10.203Z,96065.66
2023-04-09T01:36:40.716Z,96056.97
2023-04-09T01:39:08.951Z,96060.91
2023-04-09T01:41:36.993Z,96056.38
2023-04-09T01:44:09.535Z,96062.56
2023-04-09T01:46:38.782Z,96060.31
2023-04-09T01:49:07.042Z,96060.09
2023-04-09T01:51:35.222Z,96066.28
2023-04-09T01:54:02.960Z,96056.59
2023-04-09T01:56:41.286Z,96058.06
2023-04-09T01:59:10.440Z,96062.44
2023-04-09T02:01:43.064Z,96061.19
2023-04-09T02:04:16.439Z,96060.75
2023-04-09T02:06:49.562Z,96064.84
2023-04-09T02:09:19.966Z,96060.31
2023-04-09T02:11:49.607Z,96064.25
2023-04-09T02:14:21.543Z,96058.50
2023-04-09T02:16:49.284Z,96061.41
2023-04-09T02:19:16.941Z,96055.69
2023-04-09T02:21:45.083Z,96061.03
2023-04-09T02:24:12.860Z,96060.22
2023-04-09T02:26:40.611Z,96052.78
2023-04-09T02:29:08.332Z,96061.19
2023-04-09T02:31:37.371Z,96050.31
2023-04-09T02:34:05.052Z,96058.72
2023-04-09T02:36:32.717Z,96051.13
2023-04-09T02:39:00.393Z,96058.59
2023-04-09T02:41:28.107Z,96051.22
2023-04-09T02:43:55.912Z,96053.69
2023-04-09T02:46:23.620Z,96054.50
2023-04-09T02:48:52.941Z,96062.75
2023-04-09T02:51:21.966Z,96059.09
2023-04-09T02:53:49.716Z,96050.69
2023-04-09T02:56:17.433Z,96049.03
2023-04-09T02:58:45.149Z,96051.66
2023-04-09T03:01:12.999Z,96037.59
2023-04-09T03:03:42.205Z,96045.66
2023-04-09T03:06:11.478Z,96048.53
2023-04-09T03:08:39.215Z,96045.88
2023-04-09T03:11:07.125Z,96041.16
2023-04-09T03:13:34.788Z,96042.38
2023-04-09T03:16:02.538Z,96035.59
2023-04-09T03:18:30.377Z,96038.66
2023-04-09T03:21:06.428Z,96036.63
2023-04-09T03:23:37.044Z,96035.66
2023-04-09T03:26:05.878Z,96035.38
2023-04-09T03:28:33.735Z,96032.47
2023-04-09T03:31:01.497Z,96030.06
2023-04-09T03:33:29.215Z,96034.22
2023-04-09T03:35:57.001Z,96032.38
2023-04-09T03:38:24.756Z,96028.88
2023-04-09T03:40:53.850Z,96044.38
2023-04-09T03:43:21.611Z,96050.31
2023-04-09T03:45:49.325Z,96048.22
2023-04-09T03:48:17.021Z,96052.19
2023-04-09T03:50:44.825Z,96060.66
2023-04-09T03:53:12.497Z,96058.84
2023-04-09T03:55:40.622Z,96056.91
2023-04-09T03:58:09.644Z,96055.84
2023-04-09T04:00:37.300Z,96058.59
2023-04-09T04:03:08.622Z,96056.59
2023-04-09T04:05:36.435Z,96062.50
2023-04-09T04:08:04.123Z,96066.31
2023-04-09T04:10:31.784Z,96066.63
2023-04-09T04:12:59.429Z,96065.84
2023-04-09T04:15:28.642Z,96069.63
2023-04-09T04:17:56.629Z,96077.03
2023-04-09T04:20:24.319Z,96071.88
2023-04-09T04:22:52.045Z,96069.91
2023-04-09T04:25:19.966Z,96071.81
2023-04-09T04:27:47.743Z,96076.97
2023-04-09T04:30:15.416Z,96082.06
2023-04-09T04:32:44.501Z,96088.63
2023-04-09T04:35:12.219Z,96088.81
2023-04-09T04:37:40.465Z,96085.50
2023-04-09T04:40:09.379Z,96078.06
2023-04-09T04:42:37.226Z,96077.66
2023-04-09T04:45:05.397Z,96080.72
2023-04-09T04:47:33.749Z,96080.13
2023-04-09T04:50:02.880Z,96084.44
2023-04-09T04:52:30.618Z,96078.06
2023-04-09T04:54:58.277Z,96079.28
2023-04-09T04:57:25.921Z,96061.13
2023-04-09T04:59:53.772Z,96058.03
2023-04-09T05:02:21.547Z,96053.28
2023-04-09T05:04:49.314Z,96053.88
2023-04-09T05:07:18.406Z,96058.75
2023-04-09T05:09:46.177Z,96074.16
2023-04-09T05:12:15.172Z,96085.56
2023-04-09T05:14:42.844Z,96092.28
2023-04-09T05:17:10.540Z,96092.28
2023-04-09T05:19:38.189Z,96095.03
2023-04-09T05:22:05.911Z,96091.34
2023-04-09T05:24:34.967Z,96097.34
2023-04-09T05:27:05.449Z,96102.31
2023-04-09T05:29:33.139Z,96102.09
2023-04-09T05:32:01.286Z,96097.78
2023-04-09T05:34:29.014Z,96100.00
2023-04-09T05:36:56.784Z,96105.22
2023-04-09T05:39:24.454Z,96102.09
2023-04-09T05:41:53.543Z,96107.41
2023-04-09T05:44:21.251Z,96109.84
2023-04-09T05:46:49.033Z,96106.66
2023-04-09T05:49:17.715Z,96103.53
2023-04-09T05:51:45.490Z,96102.84
2023-04-09T05:54:13.261Z,96099.91
2023-04-09T05:56:41.214Z,96093.31
2023-04-09T05:59:10.579Z,96100.41
2023-04-09T06:01:38.346Z,96101.31
2023-04-09T06:04:06.479Z,96097.13
2023-04-09T06:06:34.408Z,96092.66
2023-04-09T06:09:02.072Z,96088.81
2023-04-09T06:11:29.755Z,96094.03
2023-04-09T06:13:57.457Z,96085.91
2023-04-09T06:16:26.519Z,96088.81
2023-04-09T06:18:54.618Z,96102.97
2023-04-09T06:21:22.348Z,96102.78
2023-04-09T06:23:50.384Z,96112.59
2023-04-09T06:26:18.356Z,96108.72
2023-04-09T06:28:46.151Z,96110.47
2023-04-09T06:31:13.949Z,96112.38
2023-04-09T06:33:43.023Z,96115.31
2023-04-09T06:36:10.835Z,96115.00
2023-04-09T06:38:38.592Z,96117.13
2023-04-09T06:41:08.422Z,96115.16
2023-04-09T06:43:37.411Z,96114.13
2023-04-09T06:46:05.197Z,96107.94
2023-04-09T06:48:32.899Z,96108.53
2023-04-09T06:51:03.804Z,96114.38
2023-04-09T06:53:31.652Z,96113.09
2023-04-09T06:55:59.480Z,96108.06
2023-04-09T06:58:27.260Z,96092.84
2023-04-09T07:00:54.934Z,96095.16
2023-04-09T07:03:22.881Z,96089.19
2023-04-09T07:05:50.631Z,96085.88
2023-04-09T07:08:19.657Z,96086.19
2023-04-09T07:10:47.724Z,96086.97
2023-04-09T07:13:15.412Z,96087.16
2023-04-09T07:15:43.241Z,96083.63
2023-04-09T07:18:11.043Z,96085.91
2023-04-09T07:20:38.797Z,96083.66
2023-04-09T07:23:06.536Z,96092.31
2023-04-09T07:25:35.559Z,96083.75
2023-04-09T07:28:03.294Z,96082.63
2023-04-09T07:30:31.714Z,96072.00
2023-04-09T07:32:59.395Z,96067.75
2023-04-09T07:35:27.156Z,96084.44
2023-04-09T07:37:54.938Z,96076.91
2023-04-09T07:40:22.833Z,96087.44
2023-04-09T07:42:52.936Z,96081.78
2023-04-09T07:45:20.932Z,96075.44
2023-04-09T07:47:48.628Z,96085.69
2023-04-09T07:50:16.499Z,96081.44
2023-04-09T07:52:44.415Z,96084.75
2023-04-09T07:55:12.143Z,96080.00
2023-04-09T07:57:39.930Z,96075.09
2023-04-09T08:00:10.757Z,96072.53
2023-04-09T08:02:38.548Z,96074.91
2023-04-09T08:05:07.859Z,96073.00
2023-04-09T08:07:35.724Z,96079.81
2023-04-09T08:10:03.416Z,96078.47
2023-04-09T08:12:31.143Z,96077.56
2023-04-09T08:15:00.653Z,96071.06
2023-04-09T08:17:30.881Z,96062.19
2023-04-09T08:19:58.582Z,96070.91
2023-04-09T08:22:26.456Z,96072.84
2023-04-09T08:24:54.609Z,96079.19
2023-04-09T08:27:22.415Z,96079.94
2023-04-09T08:29:50.275Z,96081.75
2023-04-09T08:32:18.030Z,96071.38
2023-04-09T08:34:47.100Z,96080.47
2023-04-09T08:37:14.809Z,96071.31
2023-04-09T08:39:42.507Z,96076.19
2023-04-09T08:42:12.565Z,96078.31
2023-04-09T08:44:40.972Z,96091.28
2023-04-09T08:47:11.558Z,96080.84
2023-04-09T08:49:41.128Z,96084.72
2023-04-09T08:52:10.216Z,96069.88
2023-04-09T08:54:38.036Z,96073.72
2023-04-09T08:57:06.623Z,96066.94
2023-04-09T08:59:37.021Z,96073.75
2023-04-09T09:02:09.005Z,96087.31
2023-04-09T09:04:46.475Z,96083.28
2023-04-09T09:07:16.136Z,96080.28
2023-04-09T09:09:55.015Z,96082.91
2023-04-09T09:12:37.119Z,96077.72
2023-04-09T09:15:05.577Z,96081.00
2023-04-09T09:17:33.495Z,96079.66
2023-04-09T09:20:19.828Z,96077.97
2023-04-09T09:22:54.930Z,96083.97
2023-04-09T09:25:23.356Z,96080.59
2023-04-09T09:27:51.512Z,96077.59
2023-04-09T09:30:23.111Z,96084.00
2023-04-09T09:32:54.319Z,96089.13
2023-04-09T09:35:22.358Z,96084.09
2023-04-09T09:38:02.487Z,96091.94
2023-04-09T09:40:30.154Z,96083.78
2023-04-09T09:42:58.196Z,96085.41
2023-04-09T09:45:26.576Z,96082.38
2023-04-09T09:47:54.831Z,96080.81
2023-04-09T09:50:25.462Z,96082.69
2023-04-09T09:53:03.124Z,96089.69
2023-04-09T09:55:33.323Z,96082.69
2023-04-09T09:58:03.664Z,96078.97
2023-04-09T10:00:34.082Z,96074.88
2023-04-09T10:03:13.142Z,96082.38
2023-04-09T10:05:42.390Z,96077.78
2023-04-09T10:08:12.327Z,96071.59
2023-04-09T10:10:42.083Z,96070.91
2023-04-09T10:13:15.512Z,96069.88
2023-04-09T10:15:45.162Z,96069.41
2023-04-09T10:18:13.104Z,96071.13
2023-04-09T10:20:48.909Z,96071.66
2023-04-09T10:23:28.322Z,96067.97
2023-04-09T10:25:56.420Z,96070.13
2023-04-09T10:28:24.346Z,96072.56
2023-04-09T10:30:54.736Z,96060.75
2023-04-09T10:33:26.595Z,96066.97
2023-04-09T10:35:55.245Z,96071.97
2023-04-09T10:38:38.390Z,96067.53
2023-04-09T10:41:14.079Z,96068.63
2023-04-09T10:43:41.798Z,96062.44
2023-04-09T10:46:27.694Z,96060.00
2023-04-09T10:49:16.879Z,96065.13
2023-04-09T10:51:51.712Z,96065.84
2023-04-09T10:54:49.364Z,96066.59
2023-04-09T10:57:22.123Z,96064.84
2023-04-09T10:59:51.813Z,96064.44
2023-04-09T11:02:58.967Z,96067.41
2023-04-09T11:05:33.050Z,96061.72
2023-04-09T11:08:06.235Z,96057.88
2023-04-09T11:10:35.668Z,96063.34
2023-04-09T11:13:04.111Z,96065.22
2023-04-09T11:15:33.307Z,96064.19
2023-04-09T11:18:02.149Z,96059.88
2023-04-09T11:20:31.212Z,96061.81
2023-04-09T11:23:00.717Z,96059.84
2023-04-09T11:25:29.390Z,96061.88
2023-04-09T11:27:59.012Z,96061.41
2023-04-09T11:30:27.304Z,96057.03
2023-04-09T11:32:55.177Z,96059.34
2023-04-09T11:35:23.938Z,96063.31
2023-04-09T11:37:52.390Z,96061.22
2023-04-09T11:40:21.768Z,96065.41
2023-04-09T11:42:50.790Z,96054.63
2023-04-09T11:45:21.124Z,96069.28
2023-04-09T11:47:49.646Z,96063.00
2023-04-09T11:50:17.822Z,96067.41
2023-04-09T11:52:46.660Z,96068.25
2023-04-09T11:55:24.799Z,96074.84
2023-04-09T11:57:53.956Z,96077.91
2023-04-09T12:00:24.795Z,96072.22
2023-04-09T12:03:00.838Z,96083.13
2023-04-09T12:05:30.523Z,96081.63
2023-04-09T12:08:01.934Z,96089.16
2023-04-09T12:10:32.171Z,96082.78
2023-04-09T12:13:03.415Z,96094.84
2023-04-09T12:15:35.881Z,96083.50
2023-04-09T12:18:04.160Z,96084.91
2023-04-09T12:20:34.900Z,96084.03
2023-04-09T12:23:04.765Z,96085.56
2023-04-09T12:25:33.070Z,96078.56
2023-04-09T12:28:00.816Z,96073.06
2023-04-09T12:30:28.701Z,96076.72
2023-04-09T12:32:57.898Z,96073.88
2023-04-09T12:35:25.768Z,96067.44
2023-04-09T12:37:53.557Z,96070.03
2023-04-09T12:40:22.119Z,96072.44
2023-04-09T12:42:49.892Z,96064.13
2023-04-09T12:45:19.484Z,96071.25
2023-04-09T12:47:47.473Z,96066.72
2023-04-09T12:50:17.151Z,96062.69
2023-04-09T12:52:45.587Z,96071.47
2023-04-09T12:55:13.853Z,96067.03
2023-04-09T12:57:44.207Z,96060.75
2023-04-09T13:00:13.032Z,96062.44
2023-04-09T13:02:40.999Z,96055.00
2023-04-09T13:05:09.468Z,96055.06
2023-04-09T13:07:39.078Z,96048.59
2023-04-09T13:10:08.693Z,96058.84
2023-04-09T13:12:36.552Z,96053.59
2023-04-09T13:15:04.454Z,96053.66
2023-04-09T13:17:32.151Z,96058.78
2023-04-09T13:19:59.932Z,96055.81
2023-04-09T13:22:27.712Z,96059.22
2023-04-09T13:24:56.889Z,96058.13
2023-04-09T13:27:24.615Z,96056.97
2023-04-09T13:29:52.375Z,96059.91
2023-04-09T13:32:21.999Z,96064.63
2023-04-09T13:34:49.905Z,96060.81
2023-04-09T13:37:17.751Z,96053.38
2023-04-09T13:39:45.826Z,96048.06
2023-04-09T13:42:16.079Z,96045.03
2023-04-09T13:44:45.304Z,96046.41
2023-04-09T13:47:13.868Z,96051.25
2023-04-09T13:49:42.188Z,96046.66
2023-04-09T13:52:10.624Z,96034.13
2023-04-09T13:54:38.739Z,96036.47
2023-04-09T13:57:06.581Z,96037.75
2023-04-09T13:59:36.077Z,96034.13
2023-04-09T14:02:03.794Z,96024.44
2023-04-09T14:04:31.703Z,96029.25
2023-04-09T14:06:59.397Z,96023.06
2023-04-09T14:09:27.066Z,96030.75
2023-04-09T14:12:02.612Z,96033.66
2023-04-09T14:14:30.163Z,96034.75
2023-04-09T14:16:59.184Z,96035.97
2023-04-09T14:19:26.875Z,96028.81
2023-04-09T14:21:55.622Z,96034.19
2023-04-09T14:24:23.334Z,96033.38
2023-04-09T14:26:53.341Z,96028.03
2023-04-09T14:29:22.091Z,96023.84
2023-04-09T14:31:49.942Z,96025.19
2023-04-09T14:34:19.071Z,96018.69
2023-04-09T14:36:46.880Z,96021.44
2023-04-09T14:39:14.563Z,96017.19
2023-04-09T14:41:42.342Z,96018.34
2023-04-09T14:44:10.303Z,96014.06
2023-04-09T14:46:38.137Z,96017.31
2023-04-09T14:49:05.844Z,96022.22
2023-04-09T14:51:34.935Z,96023.25
2023-04-09T14:54:06.244Z,96024.09
2023-04-09T14:56:33.918Z,96027.44
2023-04-09T14:59:01.855Z,96029.31
2023-04-09T15:01:30.078Z,96032.53
2023-04-09T15:03:59.053Z,96034.22
2023-04-09T15:06:27.920Z,96025.78
2023-04-09T15:08:56.977Z,96015.41
2023-04-09T15:11:25.025Z,96019.50
2023-04-09T15:13:52.919Z,96023.75
2023-04-09T15:16:24.815Z,96023.75
2023-04-09T15:18:55.445Z,96018.69
2023-04-09T15:21:23.479Z,96018.31
2023-04-09T15:23:52.146Z,96009.44
2023-04-09T15:26:21.336Z,96012.97
2023-04-09T15:28:49.329Z,96014.31
2023-04-09T15:31:17.018Z,96023.09
2023-04-09T15:33:44.755Z,96028.97
2023-04-09T15:36:12.650Z,96022.25
2023-04-09T15:38:40.433Z,96032.56
2023-04-09T15:41:08.193Z,96033.84
2023-04-09T15:43:37.224Z,96021.59
2023-04-09T15:46:09.856Z,96028.09
2023-04-09T15:48:37.808Z,96028.88
2023-04-09T15:51:06.007Z,96018.53
2023-04-09T15:53:33.758Z,96021.03
2023-04-09T15:56:01.775Z,96017.44
2023-04-09T15:58:29.790Z,96009.81
2023-04-09T16:00:58.890Z,96015.50
2023-04-09T16:03:26.784Z,96006.53
2023-04-09T16:05:54.486Z,96007.59
2023-04-09T16:08:22.164Z,96002.69
2023-04-09T16:10:50.022Z,96010.91
2023-04-09T16:13:17.710Z,96012.25
2023-04-09T16:15:46.750Z,96008.88
2023-04-09T16:18:16.034Z,96014.72
2023-04-09T16:20:43.857Z,96007.88
2023-04-09T16:23:11.513Z,96004.88
2023-04-09T16:25:39.252Z,96003.94
2023-04-09T16:28:06.943Z,96002.72
2023-04-09T16:30:34.768Z,95997.56
2023-04-09T16:33:02.520Z,95994.81
2023-04-09T16:35:31.607Z,95990.53
2023-04-09T16:37:59.479Z,95992.38
2023-04-09T16:40:27.257Z,95992.13
2023-04-09T16:42:55.143Z,95982.66
2023-04-09T16:45:22.954Z,95979.31
2023-04-09T16:47:53.986Z,95982.59
2023-04-09T16:50:21.887Z,95983.06
2023-04-09T16:52:51.236Z,95985.53
2023-04-09T16:55:18.902Z,95979.47
2023-04-09T16:57:46.545Z,95990.66
2023-04-09T17:00:17.283Z,95992.56
2023-04-09T17:02:45.983Z,95989.28
2023-04-09T17:05:13.941Z,95988.50
2023-04-09T17:07:43.171Z,95992.66
2023-04-09T17:10:12.720Z,96010.88
2023-04-09T17:12:40.421Z,96007.13
2023-04-09T17:15:09.342Z,96014.63
2023-04-09T17:17:37.382Z,96018.06
2023-04-09T17:20:05.747Z,96026.25
2023-04-09T17:22:35.060Z,96033.88
2023-04-09T17:25:04.756Z,96029.78
2023-04-09T17:27:33.928Z,96035.38
2023-04-09T17:30:01.827Z,96032.56
2023-04-09T17:32:29.650Z,96031.00
2023-04-09T17:34:59.444Z,96028.69
2023-04-09T17:37:29.313Z,96039.09
2023-04-09T17:39:57.121Z,96040.00
2023-04-09T17:42:25.046Z,96046.88
2023-04-09T17:44:54.142Z,96044.03
2023-04-09T17:47:21.981Z,96050.59
2023-04-09T17:49:49.697Z,96046.69
2023-04-09T17:52:17.341Z,96045.44
2023-04-09T17:54:46.678Z,96046.59
2023-04-09T17:57:15.491Z,96049.59
2023-04-09T17:59:43.203Z,96064.19
2023-04-09T18:02:12.700Z,96059.91
2023-04-09T18:04:40.837Z,96065.41
2023-04-09T18:07:08.587Z,96066.28
2023-04-09T18:09:39.049Z,96075.19
2023-04-09T18:12:06.854Z,96073.53
2023-04-09T18:14:34.559Z,96078.09
2023-04-09T18:17:02.512Z,96072.19
2023-04-09T18:19:31.574Z,96069.56
2023-04-09T18:21:59.367Z,96070.91
2023-04-09T18:24:28.409Z,96080.44
2023-04-09T18:26:57.697Z,96079.44
2023-04-09T18:29:27.488Z,96077.81
2023-04-09T18:31:55.778Z,96086.75
2023-04-09T18:34:33.069Z,96092.38
2023-04-09T18:37:01.381Z,96095.31
2023-04-09T18:39:30.838Z,96102.94
2023-04-09T18:41:58.547Z,96104.34
2023-04-09T18:44:26.313Z,96102.34
2023-04-09T18:46:54.030Z,96109.13
2023-04-09T18:49:22.099Z,96110.97
2023-04-09T18:51:51.304Z,96113.19
2023-04-09T18:54:19.324Z,96121.81
2023-04-09T18:56:47.355Z,96126.72
2023-04-09T18:59:16.599Z,96120.25
2023-04-09T19:01:44.596Z,96127.63
2023-04-09T19:04:12.795Z,96137.84
2023-04-09T19:06:41.116Z,96133.63
2023-04-09T19:09:10.439Z,96142.00
2023-04-09T19:11:38.413Z,96145.25
2023-04-09T19:14:06.467Z,96146.28
2023-04-09T19:16:36.332Z,96149.25
2023-04-09T19:19:04.185Z,96139.19
2023-04-09T19:21:32.141Z,96140.47
2023-04-09T19:24:00.395Z,96145.72
2023-04-09T19:26:29.628Z,96146.22
2023-04-09T19:28:57.633Z,96141.63
2023-04-09T19:31:25.614Z,96146.16
2023-04-09T19:33:53.609Z,96140.06
2023-04-09T19:36:22.563Z,96141.41
2023-04-09T19:38:52.091Z,96143.50
2023-04-09T19:41:20.157Z,96142.88
2023-04-09T19:43:49.260Z,96141.69
2023-04-09T19:46:17.128Z,96138.72
2023-04-09T19:48:44.855Z,96141.00
2023-04-09T19:51:17.535Z,96147.13
2023-04-09T19:53:46.852Z,96142.19
2023-04-09T19:56:15.650Z,96148.22
2023-04-09T19:58:44.860Z,96147.03
2023-04-09T20:01:14.048Z,96148.72
2023-04-09T20:03:42.269Z,96151.84
2023-04-09T20:06:11.280Z,96157.41
2023-04-09T20:08:39.171Z,96157.03
2023-04-09T20:11:07.067Z,96163.63
2023-04-09T20:13:34.899Z,96160.81
2023-04-09T20:16:02.911Z,96152.81
2023-04-09T20:18:32.294Z,96161.47
2023-04-09T20:21:00.143Z,96157.34
2023-04-09T20:23:28.028Z,96156.34
2023-04-09T20:25:56.010Z,96152.72
2023-04-09T20:28:24.205Z,96152.53
2023-04-09T20:30:52.327Z,96147.47
2023-04-09T20:33:20.261Z,96152.22
2023-04-09T20:35:50.516Z,96151.03
2023-04-09T20:38:20.657Z,96148.41
2023-04-09T20:40:48.560Z,96147.03
2023-04-09T20:43:16.656Z,96148.09
2023-04-09T20:45:44.532Z,96150.38
2023-04-09T20:48:12.502Z,96154.13
2023-04-09T20:50:40.787Z,96152.75
2023-04-09T20:53:10.002Z,96158.94
2023-04-09T20:55:38.785Z,96164.28
2023-04-09T20:58:06.676Z,96165.31
2023-04-09T21:00:34.504Z,96164.34
2023-04-09T21:03:03.105Z,96161.88
2023-04-09T21:05:31.138Z,96167.25
2023-04-09T21:07:58.946Z,96158.03
2023-04-09T21:10:28.015Z,96166.69
2023-04-09T21:12:55.873Z,96168.53
2023-04-09T21:15:23.513Z,96167.75
2023-04-09T21:17:51.337Z,96169.00
2023-04-09T21:20:19.480Z,96176.81
2023-04-09T21:22:47.233Z,96176.97
2023-04-09T21:25:15.690Z,96171.25
2023-04-09T21:27:44.879Z,96175.78
2023-04-09T21:30:13.291Z,96171.66
2023-04-09T21:32:41.039Z,96163.44
2023-04-09T21:35:09.099Z,96170.84
2023-04-09T21:37:37.499Z,96163.22
2023-04-09T21:40:06.119Z,96160.97
2023-04-09T21:42:33.855Z,96161.59
2023-04-09T21:45:03.030Z,96159.75
2023-04-09T21:47:31.956Z,96166.56
2023-04-09T21:49:59.756Z,96168.03
2023-04-09T21:52:27.433Z,96169.47
2023-04-09T21:54:55.129Z,96170.31
2023-04-09T21:57:22.852Z,96181.59
2023-04-09T21:59:50.689Z,96176.47
2023-04-09T22:02:20.087Z,96173.78
2023-04-09T22:04:47.952Z,96181.41
2023-04-09T22:07:15.774Z,96183.47
2023-04-09T22:09:43.514Z,96183.88
2023-04-09T22:12:11.281Z,96181.59
2023-04-09T22:14:40.564Z,96186.94
2023-04-09T22:17:09.420Z,96188.59
2023-04-09T22:19:38.546Z,96187.97
2023-04-09T22:22:06.253Z,96189.63
2023-04-09T22:24:33.923Z,96201.28
2023-04-09T22:27:01.739Z,96208.09
2023-04-09T22:29:30.549Z,96210.13
2023-04-09T22:31:58.267Z,96215.44
2023-04-09T22:34:26.148Z,96211.34
2023-04-09T22:36:55.319Z,96209.03
2023-04-09T22:39:23.016Z,96205.53
2023-04-09T22:41:50.711Z,96206.75
2023-04-09T22:44:18.658Z,96206.34
2023-04-09T22:46:46.678Z,96205.50
2023-04-09T22:49:14.378Z,96197.50
2023-04-09T22:51:42.570Z,96207.78
2023-04-09T22:59:19.960Z,96200.78
2023-04-09T23:01:49.096Z,96199.75
2023-04-09T23:04:17.932Z,96194.41
2023-04-09T23:06:45.883Z,96192.38
2023-04-09T23:11:41.961Z,96183.56
2023-04-09T23:14:09.698Z,96182.94
2023-04-09T23:16:38.765Z,96188.25
2023-04-09T23:19:06.488Z,96182.31
2023-04-09T23:21:34.160Z,96183.53
2023-04-09T23:24:01.846Z,96186.38
2023-04-09T23:26:29.656Z,96182.69
2023-04-09T23:28:57.357Z,96180.03
2023-04-09T23:31:25.090Z,96177.81
2023-04-09T23:33:54.569Z,96185.16
2023-04-09T23:36:24.169Z,96182.28
2023-04-09T23:38:52.008Z,96167.94
2023-04-09T23:41:19.767Z,96168.75
2023-04-09T23:43:47.460Z,96174.69
2023-04-09T23:46:15.117Z,96160.75
2023-04-09T23:48:42.833Z,96157.66
2023-04-09T23:51:17.969Z,96161.75
2023-04-09T23:53:45.756Z,96157.03
2023-04-09T23:56:14.783Z,96151.91
2023-04-09T23:58:42.467Z,96154.75
